sensor_id;sensor_type;location;lat;lon;timestamp;pressure;altitude;pressure_sealevel;temperature;humidity
28167;BME280;15455;53.376;-6.262;2023-03-23T00:00:53;98482.13;;;6.05;100.00
28167;BME280;15455;53.376;-6.262;2023-03-23T00:03:39;98482.88;;;6.10;100.00
28167;BME280;15455;53.376;-6.262;2023-03-23T00:06:26;98481.03;;;6.17;100.00
28167;BME280;15455;53.376;-6.262;2023-03-23T00:09:12;98486.91;;;6.23;100.00
28167;BME280;15455;53.376;-6.262;2023-03-23T00:11:57;98480.66;;;6.34;100.00
28167;BME280;15455;53.376;-6.262;2023-03-23T00:14:49;98489.97;;;6.41;100.00
28167;BME280;15455;53.376;-6.262;2023-03-23T00:17:38;98499.38;;;6.47;100.00
28167;BME280;15455;53.376;-6.262;2023-03-23T00:20:24;98496.63;;;6.53;100.00
28167;BME280;15455;53.376;-6.262;2023-03-23T00:23:08;98488.69;;;6.60;100.00
28167;BME280;15455;53.376;-6.262;2023-03-23T00:25:55;98498.00;;;6.69;100.00
28167;BME280;15455;53.376;-6.262;2023-03-23T00:28:42;98493.53;;;6.74;100.00
28167;BME280;15455;53.376;-6.262;2023-03-23T00:31:27;98490.06;;;6.75;100.00
28167;BME280;15455;53.376;-6.262;2023-03-23T00:34:21;98483.28;;;6.70;100.00
28167;BME280;15455;53.376;-6.262;2023-03-23T00:37:07;98481.63;;;6.67;100.00
28167;BME280;15455;53.376;-6.262;2023-03-23T00:39:51;98480.84;;;6.64;100.00
28167;BME280;15455;53.376;-6.262;2023-03-23T00:42:41;98479.13;;;6.63;100.00
28167;BME280;15455;53.376;-6.262;2023-03-23T00:45:25;98476.59;;;6.61;100.00
28167;BME280;15455;53.376;-6.262;2023-03-23T00:48:13;98479.97;;;6.65;100.00
28167;BME280;15455;53.376;-6.262;2023-03-23T00:50:57;98476.44;;;6.67;100.00
28167;BME280;15455;53.376;-6.262;2023-03-23T00:53:42;98490.31;;;6.66;100.00
28167;BME280;15455;53.376;-6.262;2023-03-23T00:56:26;98487.72;;;6.66;100.00
28167;BME280;15455;53.376;-6.262;2023-03-23T00:59:11;98486.59;;;6.76;100.00
28167;BME280;15455;53.376;-6.262;2023-03-23T01:01:55;98489.13;;;6.80;100.00
28167;BME280;15455;53.376;-6.262;2023-03-23T01:04:39;98486.41;;;6.84;100.00
28167;BME280;15455;53.376;-6.262;2023-03-23T01:07:24;98496.75;;;6.86;100.00
28167;BME280;15455;53.376;-6.262;2023-03-23T01:10:08;98497.50;;;6.91;100.00
28167;BME280;15455;53.376;-6.262;2023-03-23T01:12:56;98497.50;;;6.91;100.00
28167;BME280;15455;53.376;-6.262;2023-03-23T01:15:41;98507.00;;;6.92;100.00
28167;BME280;15455;53.376;-6.262;2023-03-23T01:18:26;98505.31;;;6.89;100.00
28167;BME280;15455;53.376;-6.262;2023-03-23T01:21:13;98506.19;;;6.88;100.00
28167;BME280;15455;53.376;-6.262;2023-03-23T01:23:58;98502.69;;;6.91;100.00
28167;BME280;15455;53.376;-6.262;2023-03-23T01:26:43;98508.75;;;6.90;100.00
28167;BME280;15455;53.376;-6.262;2023-03-23T01:29:27;98517.38;;;6.92;100.00
28167;BME280;15455;53.376;-6.262;2023-03-23T01:32:11;98512.19;;;6.90;100.00
28167;BME280;15455;53.376;-6.262;2023-03-23T01:34:58;98519.19;;;6.87;100.00
28167;BME280;15455;53.376;-6.262;2023-03-23T01:37:42;98532.34;;;6.79;100.00
28167;BME280;15455;53.376;-6.262;2023-03-23T01:40:27;98539.28;;;6.77;100.00
28167;BME280;15455;53.376;-6.262;2023-03-23T01:43:15;98520.50;;;6.67;100.00
28167;BME280;15455;53.376;-6.262;2023-03-23T01:46:01;98535.38;;;6.59;100.00
28167;BME280;15455;53.376;-6.262;2023-03-23T01:48:45;98542.69;;;6.41;100.00
28167;BME280;15455;53.376;-6.262;2023-03-23T01:51:30;98543.66;;;6.36;100.00
28167;BME280;15455;53.376;-6.262;2023-03-23T01:54:17;98533.53;;;6.23;100.00
28167;BME280;15455;53.376;-6.262;2023-03-23T01:57:19;98534.56;;;6.15;100.00
28167;BME280;15455;53.376;-6.262;2023-03-23T02:00:08;98535.59;;;6.07;100.00
28167;BME280;15455;53.376;-6.262;2023-03-23T02:02:57;98526.19;;;6.02;100.00
28167;BME280;15455;53.376;-6.262;2023-03-23T02:05:42;98522.84;;;5.98;100.00
28167;BME280;15455;53.376;-6.262;2023-03-23T02:08:44;98526.31;;;5.94;100.00
28167;BME280;15455;53.376;-6.262;2023-03-23T02:11:31;98535.94;;;5.87;100.00
28167;BME280;15455;53.376;-6.262;2023-03-23T02:14:16;98537.66;;;5.88;100.00
28167;BME280;15455;53.376;-6.262;2023-03-23T02:26:34;98501.53;;;5.82;100.00
28167;BME280;15455;53.376;-6.262;2023-03-23T02:36:04;98512.06;;;5.73;100.00
28167;BME280;15455;53.376;-6.262;2023-03-23T02:39:14;98510.38;;;5.72;100.00
28167;BME280;15455;53.376;-6.262;2023-03-23T02:42:05;98507.69;;;5.77;100.00
28167;BME280;15455;53.376;-6.262;2023-03-23T02:44:52;98518.78;;;5.82;100.00
28167;BME280;15455;53.376;-6.262;2023-03-23T02:47:39;98521.34;;;5.83;100.00
28167;BME280;15455;53.376;-6.262;2023-03-23T02:50:27;98507.47;;;5.87;100.00
28167;BME280;15455;53.376;-6.262;2023-03-23T02:53:13;98513.41;;;5.93;100.00
28167;BME280;15455;53.376;-6.262;2023-03-23T02:56:01;98513.31;;;5.99;100.00
28167;BME280;15455;53.376;-6.262;2023-03-23T02:58:49;98508.91;;;6.04;100.00
28167;BME280;15455;53.376;-6.262;2023-03-23T03:04:24;98514.00;;;6.08;100.00
28167;BME280;15455;53.376;-6.262;2023-03-23T03:10:17;98511.16;;;6.19;100.00
28167;BME280;15455;53.376;-6.262;2023-03-23T03:16:05;98504.09;;;6.28;100.00
28167;BME280;15455;53.376;-6.262;2023-03-23T03:21:53;98501.41;;;6.32;100.00
28167;BME280;15455;53.376;-6.262;2023-03-23T03:24:45;98495.28;;;6.36;100.00
28167;BME280;15455;53.376;-6.262;2023-03-23T03:27:31;98489.16;;;6.40;100.00
28167;BME280;15455;53.376;-6.262;2023-03-23T03:30:31;98485.63;;;6.43;100.00
28167;BME280;15455;53.376;-6.262;2023-03-23T03:33:20;98470.09;;;6.43;100.00
28167;BME280;15455;53.376;-6.262;2023-03-23T03:36:17;98477.00;;;6.42;100.00
28167;BME280;15455;53.376;-6.262;2023-03-23T03:39:04;98471.81;;;6.42;100.00
28167;BME280;15455;53.376;-6.262;2023-03-23T03:41:52;98455.31;;;6.47;100.00
28167;BME280;15455;53.376;-6.262;2023-03-23T03:44:38;98457.91;;;6.47;100.00
28167;BME280;15455;53.376;-6.262;2023-03-23T03:47:22;98445.88;;;6.44;100.00
28167;BME280;15455;53.376;-6.262;2023-03-23T03:50:07;98429.56;;;6.40;100.00
28167;BME280;15455;53.376;-6.262;2023-03-23T03:52:52;98422.78;;;6.35;100.00
28167;BME280;15455;53.376;-6.262;2023-03-23T03:55:37;98410.91;;;6.24;100.00
28167;BME280;15455;53.376;-6.262;2023-03-23T03:58:27;98406.00;;;6.12;100.00
28167;BME280;15455;53.376;-6.262;2023-03-23T04:01:24;98402.03;;;5.97;100.00
28167;BME280;15455;53.376;-6.262;2023-03-23T04:04:09;98399.69;;;5.83;100.00
28167;BME280;15455;53.376;-6.262;2023-03-23T04:06:54;98388.59;;;5.78;100.00
28167;BME280;15455;53.376;-6.262;2023-03-23T04:09:40;98394.75;;;5.72;100.00
28167;BME280;15455;53.376;-6.262;2023-03-23T04:12:29;98393.06;;;5.70;100.00
28167;BME280;15455;53.376;-6.262;2023-03-23T04:15:13;98396.75;;;5.60;100.00
28167;BME280;15455;53.376;-6.262;2023-03-23T04:17:57;98399.31;;;5.60;100.00
28167;BME280;15455;53.376;-6.262;2023-03-23T04:20:44;98398.38;;;5.64;100.00
28167;BME280;15455;53.376;-6.262;2023-03-23T04:23:34;98399.28;;;5.61;100.00
28167;BME280;15455;53.376;-6.262;2023-03-23T04:26:21;98397.44;;;5.68;100.00
28167;BME280;15455;53.376;-6.262;2023-03-23T04:29:08;98400.94;;;5.65;100.00
28167;BME280;15455;53.376;-6.262;2023-03-23T04:31:53;98403.50;;;5.67;100.00
28167;BME280;15455;53.376;-6.262;2023-03-23T04:34:50;98398.16;;;5.74;100.00
28167;BME280;15455;53.376;-6.262;2023-03-23T04:37:37;98392.91;;;5.79;100.00
28167;BME280;15455;53.376;-6.262;2023-03-23T04:40:23;98398.03;;;5.81;100.00
28167;BME280;15455;53.376;-6.262;2023-03-23T04:43:23;98399.75;;;5.80;100.00
28167;BME280;15455;53.376;-6.262;2023-03-23T04:46:34;98401.47;;;5.81;100.00
28167;BME280;15455;53.376;-6.262;2023-03-23T04:49:25;98405.75;;;5.84;100.00
28167;BME280;15455;53.376;-6.262;2023-03-23T04:52:21;98397.03;;;5.88;100.00
28167;BME280;15455;53.376;-6.262;2023-03-23T04:55:14;98396.91;;;5.93;100.00
28167;BME280;15455;53.376;-6.262;2023-03-23T04:58:03;98404.69;;;5.93;100.00
28167;BME280;15455;53.376;-6.262;2023-03-23T05:01:02;98400.31;;;5.95;100.00
28167;BME280;15455;53.376;-6.262;2023-03-23T05:03:49;98389.16;;;5.93;100.00
28167;BME280;15455;53.376;-6.262;2023-03-23T05:06:33;98398.59;;;5.94;100.00
28167;BME280;15455;53.376;-6.262;2023-03-23T05:09:23;98397.78;;;5.91;100.00
28167;BME280;15455;53.376;-6.262;2023-03-23T05:12:09;98405.56;;;5.91;100.00
28167;BME280;15455;53.376;-6.262;2023-03-23T05:15:05;98405.56;;;5.91;100.00
28167;BME280;15455;53.376;-6.262;2023-03-23T05:17:52;98397.69;;;5.98;100.00
28167;BME280;15455;53.376;-6.262;2023-03-23T05:20:38;98403.75;;;5.97;100.00
28167;BME280;15455;53.376;-6.262;2023-03-23T05:23:29;98406.38;;;5.95;100.00
28167;BME280;15455;53.376;-6.262;2023-03-23T05:26:23;98414.09;;;5.98;100.00
28167;BME280;15455;53.376;-6.262;2023-03-23T05:29:13;98403.75;;;5.97;100.00
28167;BME280;15455;53.376;-6.262;2023-03-23T05:32:04;98405.63;;;5.88;100.00
28167;BME280;15455;53.376;-6.262;2023-03-23T05:34:53;98400.47;;;5.88;100.00
28167;BME280;15455;53.376;-6.262;2023-03-23T05:37:38;98405.59;;;5.90;100.00
28167;BME280;15455;53.376;-6.262;2023-03-23T05:40:25;98405.56;;;5.91;100.00
28167;BME280;15455;53.376;-6.262;2023-03-23T05:43:28;98399.47;;;5.94;100.00
28167;BME280;15455;53.376;-6.262;2023-03-23T05:46:25;98407.25;;;5.94;100.00
28167;BME280;15455;53.376;-6.262;2023-03-23T05:49:14;98413.28;;;5.93;100.00
28167;BME280;15455;53.376;-6.262;2023-03-23T05:52:01;98415.88;;;5.93;100.00
28167;BME280;15455;53.376;-6.262;2023-03-23T05:54:45;98416.69;;;5.97;100.00
28167;BME280;15455;53.376;-6.262;2023-03-23T05:57:31;98415.84;;;5.95;100.00
28167;BME280;15455;53.376;-6.262;2023-03-23T06:00:22;98417.56;;;5.97;100.00
28167;BME280;15455;53.376;-6.262;2023-03-23T06:03:16;98418.38;;;5.99;100.00
28167;BME280;15455;53.376;-6.262;2023-03-23T06:06:10;98413.16;;;6.01;100.00
28167;BME280;15455;53.376;-6.262;2023-03-23T06:09:06;98414.00;;;6.03;100.00
28167;BME280;15455;53.376;-6.262;2023-03-23T06:12:23;98408.00;;;5.99;100.00
28167;BME280;15455;53.376;-6.262;2023-03-23T06:15:47;98407.13;;;6.00;100.00
28167;BME280;15455;53.376;-6.262;2023-03-23T06:18:39;98397.69;;;5.98;100.00
28167;BME280;15455;53.376;-6.262;2023-03-23T06:21:43;98391.66;;;5.97;100.00
28167;BME280;15455;53.376;-6.262;2023-03-23T06:24:51;98390.00;;;5.93;100.00
28167;BME280;15455;53.376;-6.262;2023-03-23T06:27:41;98397.72;;;5.95;100.00
28167;BME280;15455;53.376;-6.262;2023-03-23T06:30:26;98390.00;;;5.93;100.00
28167;BME280;15455;53.376;-6.262;2023-03-23T06:33:11;98391.66;;;5.96;100.00
28167;BME280;15455;53.376;-6.262;2023-03-23T06:36:19;98393.41;;;5.95;100.00
28167;BME280;15455;53.376;-6.262;2023-03-23T06:39:24;98392.53;;;5.95;100.00
28167;BME280;15455;53.376;-6.262;2023-03-23T06:42:22;98412.38;;;5.96;100.00
28167;BME280;15455;53.376;-6.262;2023-03-23T06:45:19;98402.81;;;5.99;100.00
28167;BME280;15455;53.376;-6.262;2023-03-23T06:48:07;98405.38;;;6.01;100.00
28167;BME280;15455;53.376;-6.262;2023-03-23T06:50:55;98407.28;;;5.93;100.00
28167;BME280;15455;53.376;-6.262;2023-03-23T06:53:42;98410.66;;;5.95;100.00
28167;BME280;15455;53.376;-6.262;2023-03-23T06:56:31;98409.75;;;5.99;100.00
28167;BME280;15455;53.376;-6.262;2023-03-23T06:59:16;98420.88;;;6.04;100.00
28167;BME280;15455;53.376;-6.262;2023-03-23T07:02:01;98420.81;;;6.07;100.00
28167;BME280;15455;53.376;-6.262;2023-03-23T07:04:45;98430.25;;;6.08;100.00
28167;BME280;15455;53.376;-6.262;2023-03-23T07:07:40;98425.94;;;6.08;100.00
28167;BME280;15455;53.376;-6.262;2023-03-23T07:10:33;98429.28;;;6.14;100.00
28167;BME280;15455;53.376;-6.262;2023-03-23T07:13:20;98426.72;;;6.12;100.00
28167;BME280;15455;53.376;-6.262;2023-03-23T07:16:09;98428.44;;;6.13;100.00
28167;BME280;15455;53.376;-6.262;2023-03-23T07:18:55;98428.50;;;6.10;100.00
28167;BME280;15455;53.376;-6.262;2023-03-23T07:21:40;98430.22;;;6.11;100.00
28167;BME280;15455;53.376;-6.262;2023-03-23T07:24:24;98439.63;;;6.14;100.00
28167;BME280;15455;53.376;-6.262;2023-03-23T07:27:20;98430.81;;;6.24;100.00
28167;BME280;15455;53.376;-6.262;2023-03-23T07:30:06;98439.88;;;6.42;100.00
28167;BME280;15455;53.376;-6.262;2023-03-23T07:32:52;98439.72;;;6.48;100.00
28167;BME280;15455;53.376;-6.262;2023-03-23T07:35:38;98441.25;;;6.57;100.00
28167;BME280;15455;53.376;-6.262;2023-03-23T07:38:26;98438.50;;;6.65;100.00
28167;BME280;15455;53.376;-6.262;2023-03-23T07:41:11;98446.69;;;6.84;100.00
28167;BME280;15455;53.376;-6.262;2023-03-23T07:43:59;98439.41;;;6.98;100.00
28167;BME280;15455;53.376;-6.262;2023-03-23T07:46:53;98448.50;;;7.15;100.00
28167;BME280;15455;53.376;-6.262;2023-03-23T07:49:46;98442.13;;;7.28;100.00
28167;BME280;15455;53.376;-6.262;2023-03-23T07:52:44;98441.59;;;7.46;100.00
28167;BME280;15455;53.376;-6.262;2023-03-23T07:55:30;98425.69;;;7.59;100.00
28167;BME280;15455;53.376;-6.262;2023-03-23T07:58:34;98429.81;;;7.66;100.00
28167;BME280;15455;53.376;-6.262;2023-03-23T08:01:19;98429.56;;;7.75;100.00
28167;BME280;15455;53.376;-6.262;2023-03-23T08:04:23;98424.50;;;7.71;100.00
28167;BME280;15455;53.376;-6.262;2023-03-23T08:07:27;98429.75;;;7.69;100.00
28167;BME280;15455;53.376;-6.262;2023-03-23T08:10:18;98426.06;;;7.76;100.00
28167;BME280;15455;53.376;-6.262;2023-03-23T08:13:08;98430.94;;;7.89;100.00
28167;BME280;15455;53.376;-6.262;2023-03-23T08:16:05;98436.63;;;8.00;100.00
28167;BME280;15455;53.376;-6.262;2023-03-23T08:19:09;98432.03;;;8.10;100.00
28167;BME280;15455;53.376;-6.262;2023-03-23T08:21:53;98431.66;;;8.22;100.00
28167;BME280;15455;53.376;-6.262;2023-03-23T08:24:56;98420.97;;;8.31;100.00
28167;BME280;15455;53.376;-6.262;2023-03-23T08:28:04;98423.44;;;8.36;100.00
28167;BME280;15455;53.376;-6.262;2023-03-23T08:31:13;98423.38;;;8.39;100.00
28167;BME280;15455;53.376;-6.262;2023-03-23T08:34:16;98418.00;;;8.44;100.00
28167;BME280;15455;53.376;-6.262;2023-03-23T08:37:01;98410.16;;;8.47;100.00
28167;BME280;15455;53.376;-6.262;2023-03-23T08:40:10;98416.25;;;8.46;100.00
28167;BME280;15455;53.376;-6.262;2023-03-23T08:43:05;98420.59;;;8.45;100.00
28167;BME280;15455;53.376;-6.262;2023-03-23T08:45:50;98415.41;;;8.45;100.00
28167;BME280;15455;53.376;-6.262;2023-03-23T08:48:54;98404.78;;;8.51;100.00
28167;BME280;15455;53.376;-6.262;2023-03-23T08:51:51;98429.69;;;8.59;100.00
28167;BME280;15455;53.376;-6.262;2023-03-23T08:54:51;98393.00;;;8.68;100.00
28167;BME280;15455;53.376;-6.262;2023-03-23T08:57:45;98416.38;;;8.68;100.00
28167;BME280;15455;53.376;-6.262;2023-03-23T09:00:56;98419.88;;;8.68;100.00
28167;BME280;15455;53.376;-6.262;2023-03-23T09:03:58;98419.53;;;8.78;100.00
28167;BME280;15455;53.376;-6.262;2023-03-23T09:06:59;98421.81;;;8.89;100.00
28167;BME280;15455;53.376;-6.262;2023-03-23T09:09:44;98432.66;;;9.01;100.00
28167;BME280;15455;53.376;-6.262;2023-03-23T09:12:29;98430.53;;;9.13;100.00
28167;BME280;15455;53.376;-6.262;2023-03-23T09:15:16;98410.88;;;9.29;100.00
28167;BME280;15455;53.376;-6.262;2023-03-23T09:18:01;98412.16;;;9.43;100.00
28167;BME280;15455;53.376;-6.262;2023-03-23T09:20:45;98415.91;;;9.59;100.00
28167;BME280;15455;53.376;-6.262;2023-03-23T09:23:31;98428.19;;;9.79;100.00
28167;BME280;15455;53.376;-6.262;2023-03-23T09:26:17;98419.09;;;9.91;100.00
28167;BME280;15455;53.376;-6.262;2023-03-23T09:29:01;98418.63;;;10.03;100.00
28167;BME280;15455;53.376;-6.262;2023-03-23T09:31:46;98419.69;;;10.21;100.00
28167;BME280;15455;53.376;-6.262;2023-03-23T09:34:31;98415.66;;;10.36;100.00
28167;BME280;15455;53.376;-6.262;2023-03-23T09:37:19;98424.25;;;10.38;100.00
28167;BME280;15455;53.376;-6.262;2023-03-23T09:40:06;98420.41;;;10.25;100.00
28167;BME280;15455;53.376;-6.262;2023-03-23T09:42:56;98411.81;;;9.99;100.00
28167;BME280;15455;53.376;-6.262;2023-03-23T09:49:25;98428.94;;;9.83;100.00
28167;BME280;15455;53.376;-6.262;2023-03-23T09:52:15;98428.50;;;9.95;100.00
28167;BME280;15455;53.376;-6.262;2023-03-23T09:55:00;98422.63;;;10.12;100.00
28167;BME280;15455;53.376;-6.262;2023-03-23T10:01:13;98411.69;;;10.26;100.00
28167;BME280;15455;53.376;-6.262;2023-03-23T10:04:07;98420.72;;;10.17;100.00
28167;BME280;15455;53.376;-6.262;2023-03-23T10:07:19;98412.81;;;10.19;100.00
28167;BME280;15455;53.376;-6.262;2023-03-23T10:10:05;98412.00;;;10.18;100.00
28167;BME280;15455;53.376;-6.262;2023-03-23T10:12:55;98412.38;;;10.07;100.00
28167;BME280;15455;53.376;-6.262;2023-03-23T10:15:43;98416.97;;;10.01;100.00
28167;BME280;15455;53.376;-6.262;2023-03-23T10:18:36;98416.56;;;9.89;100.00
28167;BME280;15455;53.376;-6.262;2023-03-23T10:21:22;98410.88;;;9.78;100.00
28167;BME280;15455;53.376;-6.262;2023-03-23T10:24:17;98417.88;;;9.76;100.00
28167;BME280;15455;53.376;-6.262;2023-03-23T10:27:10;98430.00;;;9.77;100.00
28167;BME280;15455;53.376;-6.262;2023-03-23T10:30:11;98434.09;;;9.84;100.00
28167;BME280;15455;53.376;-6.262;2023-03-23T10:33:22;98424.06;;;9.97;100.00
28167;BME280;15455;53.376;-6.262;2023-03-23T10:36:15;98430.19;;;10.20;100.00
28167;BME280;15455;53.376;-6.262;2023-03-23T10:39:08;98415.91;;;10.52;100.00
28167;BME280;15455;53.376;-6.262;2023-03-23T10:41:55;98419.09;;;10.81;100.00
28167;BME280;15455;53.376;-6.262;2023-03-23T10:44:39;98426.69;;;11.08;100.00
28167;BME280;15455;53.376;-6.262;2023-03-23T10:47:24;98429.88;;;11.35;100.00
28167;BME280;15455;53.376;-6.262;2023-03-23T10:50:14;98422.44;;;11.65;100.00
28167;BME280;15455;53.376;-6.262;2023-03-23T10:53:00;98408.66;;;11.82;100.00
28167;BME280;15455;53.376;-6.262;2023-03-23T10:55:45;98412.81;;;11.87;100.00
28167;BME280;15455;53.376;-6.262;2023-03-23T10:58:33;98413.94;;;11.81;100.00
28167;BME280;15455;53.376;-6.262;2023-03-23T11:01:20;98410.78;;;11.74;100.00
28167;BME280;15455;53.376;-6.262;2023-03-23T11:04:12;98398.94;;;11.65;100.00
28167;BME280;15455;53.376;-6.262;2023-03-23T11:07:01;98409.22;;;11.70;100.00
28167;BME280;15455;53.376;-6.262;2023-03-23T11:09:55;98413.31;;;11.76;100.00
28167;BME280;15455;53.376;-6.262;2023-03-23T11:12:44;98416.22;;;11.89;100.00
28167;BME280;15455;53.376;-6.262;2023-03-23T11:15:38;98415.00;;;11.97;100.00
28167;BME280;15455;53.376;-6.262;2023-03-23T11:18:40;98410.28;;;12.42;100.00
28167;BME280;15455;53.376;-6.262;2023-03-23T11:21:26;98401.56;;;12.78;100.00
28167;BME280;15455;53.376;-6.262;2023-03-23T11:24:11;98400.03;;;13.09;100.00
28167;BME280;15455;53.376;-6.262;2023-03-23T11:26:57;98405.28;;;13.09;100.00
28167;BME280;15455;53.376;-6.262;2023-03-23T11:32:54;98418.91;;;12.44;100.00
28167;BME280;15455;53.376;-6.262;2023-03-23T11:35:43;98414.69;;;12.23;100.00
28167;BME280;15455;53.376;-6.262;2023-03-23T11:38:28;98402.53;;;12.22;100.00
28167;BME280;15455;53.376;-6.262;2023-03-23T11:41:18;98396.31;;;12.24;100.00
28167;BME280;15455;53.376;-6.262;2023-03-23T11:44:09;98395.66;;;12.38;100.00
28167;BME280;15455;53.376;-6.262;2023-03-23T11:47:27;98380.88;;;12.37;100.00
28167;BME280;15455;53.376;-6.262;2023-03-23T11:50:32;98387.03;;;12.36;100.00
28167;BME280;15455;53.376;-6.262;2023-03-23T11:59:15;98398.78;;;12.27;100.00
28167;BME280;15455;53.376;-6.262;2023-03-23T12:23:14;98358.69;;;12.81;100.00
28167;BME280;15455;53.376;-6.262;2023-03-23T12:26:14;98359.34;;;13.19;100.00
28167;BME280;15455;53.376;-6.262;2023-03-23T12:29:26;98361.28;;;13.67;100.00
28167;BME280;15455;53.376;-6.262;2023-03-23T12:35:34;98359.09;;;14.23;100.00
28167;BME280;15455;53.376;-6.262;2023-03-23T12:45:23;98347.91;;;14.19;100.00
28167;BME280;15455;53.376;-6.262;2023-03-23T12:48:13;98351.16;;;14.09;100.00
28167;BME280;15455;53.376;-6.262;2023-03-23T12:51:13;98343.53;;;14.04;100.00
28167;BME280;15455;53.376;-6.262;2023-03-23T12:54:14;98347.50;;;13.79;100.00
28167;BME280;15455;53.376;-6.262;2023-03-23T12:57:16;98341.03;;;13.53;100.00
28167;BME280;15455;53.376;-6.262;2023-03-23T13:00:28;98339.25;;;13.37;100.00
28167;BME280;15455;53.376;-6.262;2023-03-23T13:06:42;98335.97;;;13.66;100.00
28167;BME280;15455;53.376;-6.262;2023-03-23T13:09:53;98328.22;;;13.80;100.00
28167;BME280;15455;53.376;-6.262;2023-03-23T13:12:41;98318.06;;;13.74;100.00
28167;BME280;15455;53.376;-6.262;2023-03-23T13:16:05;98304.88;;;13.92;100.00
28167;BME280;15455;53.376;-6.262;2023-03-23T13:22:10;98315.09;;;13.64;100.00
28167;BME280;15455;53.376;-6.262;2023-03-23T13:25:03;98317.47;;;13.69;100.00
28167;BME280;15455;53.376;-6.262;2023-03-23T13:28:00;98328.22;;;13.80;100.00
28167;BME280;15455;53.376;-6.262;2023-03-23T13:30:59;98319.88;;;13.40;100.00
28167;BME280;15455;53.376;-6.262;2023-03-23T13:33:50;98319.03;;;13.40;100.00
28167;BME280;15455;53.376;-6.262;2023-03-23T13:36:36;98298.38;;;13.67;100.00
28167;BME280;15455;53.376;-6.262;2023-03-23T13:47:40;98286.31;;;15.02;100.00
28167;BME280;15455;53.376;-6.262;2023-03-23T13:50:28;98286.78;;;14.94;100.00
28167;BME280;15455;53.376;-6.262;2023-03-23T13:53:22;98292.44;;;15.02;100.00
28167;BME280;15455;53.376;-6.262;2023-03-23T13:56:41;98274.19;;;14.85;100.00
28167;BME280;15455;53.376;-6.262;2023-03-23T14:11:11;98274.75;;;14.45;100.00
28167;BME280;15455;53.376;-6.262;2023-03-23T14:14:03;98281.41;;;14.81;100.00
28167;BME280;15455;53.376;-6.262;2023-03-23T14:16:49;98282.16;;;14.83;100.00
28167;BME280;15455;53.376;-6.262;2023-03-23T14:19:38;98269.53;;;14.59;100.00
28167;BME280;15455;53.376;-6.262;2023-03-23T14:22:31;98272.31;;;14.72;100.00
28167;BME280;15455;53.376;-6.262;2023-03-23T14:25:18;98268.88;;;15.01;100.00
28167;BME280;15455;53.376;-6.262;2023-03-23T14:28:17;98242.03;;;14.96;100.00
28167;BME280;15455;53.376;-6.262;2023-03-23T14:31:01;98268.59;;;14.61;100.00
28167;BME280;15455;53.376;-6.262;2023-03-23T14:33:46;98247.97;;;14.24;100.00
28167;BME280;15455;53.376;-6.262;2023-03-23T14:36:35;98243.72;;;14.07;100.00
28167;BME280;15455;53.376;-6.262;2023-03-23T14:39:24;98243.56;;;13.94;100.00
28167;BME280;15455;53.376;-6.262;2023-03-23T14:42:13;98236.16;;;14.01;100.00
28167;BME280;15455;53.376;-6.262;2023-03-23T14:45:00;98238.09;;;14.13;100.00
28167;BME280;15455;53.376;-6.262;2023-03-23T14:47:54;98235.03;;;14.21;100.00
28167;BME280;15455;53.376;-6.262;2023-03-23T14:51:02;98233.41;;;14.04;100.00
28167;BME280;15455;53.376;-6.262;2023-03-23T14:53:48;98229.28;;;13.84;100.00
28167;BME280;15455;53.376;-6.262;2023-03-23T14:56:36;98236.91;;;13.72;100.00
28167;BME280;15455;53.376;-6.262;2023-03-23T14:59:21;98229.59;;;13.78;100.00
28167;BME280;15455;53.376;-6.262;2023-03-23T15:02:11;98220.09;;;13.61;100.00
28167;BME280;15455;53.376;-6.262;2023-03-23T15:05:03;98224.03;;;13.36;100.00
28167;BME280;15455;53.376;-6.262;2023-03-23T15:07:53;98212.22;;;13.45;100.00
28167;BME280;15455;53.376;-6.262;2023-03-23T15:10:39;98199.44;;;13.54;100.00
28167;BME280;15455;53.376;-6.262;2023-03-23T15:13:23;98198.34;;;13.59;100.00
28167;BME280;15455;53.376;-6.262;2023-03-23T15:16:21;98185.78;;;13.49;100.00
28167;BME280;15455;53.376;-6.262;2023-03-23T15:19:17;98196.31;;;13.16;100.00
28167;BME280;15455;53.376;-6.262;2023-03-23T15:25:10;98195.25;;;13.02;100.00
28167;BME280;15455;53.376;-6.262;2023-03-23T15:27:58;98189.59;;;12.94;100.00
28167;BME280;15455;53.376;-6.262;2023-03-23T15:30:48;98194.84;;;12.77;100.00
28167;BME280;15455;53.376;-6.262;2023-03-23T15:33:35;98174.50;;;12.66;100.00
28167;BME280;15455;53.376;-6.262;2023-03-23T15:36:21;98174.13;;;12.56;100.00
28167;BME280;15455;53.376;-6.262;2023-03-23T15:39:05;98166.16;;;12.42;100.00
28167;BME280;15455;53.376;-6.262;2023-03-23T15:41:51;98194.16;;;12.40;100.00
28167;BME280;15455;53.376;-6.262;2023-03-23T15:44:36;98195.78;;;12.25;100.00
28167;BME280;15455;53.376;-6.262;2023-03-23T15:47:20;98180.41;;;12.01;100.00
28167;BME280;15455;53.376;-6.262;2023-03-23T15:50:32;98194.06;;;11.89;100.00
28167;BME280;15455;53.376;-6.262;2023-03-23T15:53:35;98190.66;;;11.69;100.00
28167;BME280;15455;53.376;-6.262;2023-03-23T15:56:22;98176.56;;;11.54;100.00
28167;BME280;15455;53.376;-6.262;2023-03-23T15:59:09;98180.38;;;11.47;100.00
28167;BME280;15455;53.376;-6.262;2023-03-23T16:01:55;98184.47;;;11.34;100.00
28167;BME280;15455;53.376;-6.262;2023-03-23T16:04:41;98172.78;;;11.23;100.00
28167;BME280;15455;53.376;-6.262;2023-03-23T16:07:31;98168.75;;;11.16;100.00
28167;BME280;15455;53.376;-6.262;2023-03-23T16:10:19;98156.00;;;11.10;100.00
28167;BME280;15455;53.376;-6.262;2023-03-23T16:13:05;98162.91;;;11.11;100.00
28167;BME280;15455;53.376;-6.262;2023-03-23T16:15:51;98158.72;;;11.26;100.00
28167;BME280;15455;53.376;-6.262;2023-03-23T16:18:36;98157.06;;;11.42;100.00
28167;BME280;15455;53.376;-6.262;2023-03-23T16:21:21;98147.50;;;11.43;100.00
28167;BME280;15455;53.376;-6.262;2023-03-23T16:24:08;98150.19;;;11.41;100.00
28167;BME280;15455;53.376;-6.262;2023-03-23T16:26:54;98153.41;;;11.46;100.00
28167;BME280;15455;53.376;-6.262;2023-03-23T16:29:39;98146.34;;;11.49;100.00
28167;BME280;15455;53.376;-6.262;2023-03-23T16:32:31;98157.50;;;11.52;100.00